createdAt,value
2019-01-14T00:02:46.327Z,94056.37
2019-01-14T00:05:35.907Z,94072.92
2019-01-14T00:08:25.499Z,94095.23
2019-01-14T00:11:15.216Z,94101.90
2019-01-14T00:14:04.962Z,94100.02
2019-01-14T00:16:54.713Z,94119.41
2019-01-14T00:19:46.223Z,94121.43
2019-01-14T00:22:35.864Z,94120.74
2019-01-14T00:25:25.469Z,94131.58
2019-01-14T00:28:15.338Z,94110.10
2019-01-14T00:31:25.363Z,94148.73
2019-01-14T00:37:25.060Z,94162.62
2019-01-14T00:40:36.894Z,94212.05
2019-01-14T00:43:26.770Z,94224.73
2019-01-14T00:46:16.337Z,94209.45
2019-01-14T00:49:06.193Z,94239.12
2019-01-14T00:51:55.932Z,94279.75
2019-01-14T00:54:45.693Z,94331.64
2019-01-14T00:57:35.467Z,94351.41
2019-01-14T01:00:25.640Z,94386.41
2019-01-14T01:03:15.289Z,94392.78
2019-01-14T01:12:16.050Z,94523.82
2019-01-14T01:15:06.579Z,94590.77
2019-01-14T01:17:56.160Z,94631.78
2019-01-14T01:20:39.041Z,94653.93
2019-01-14T01:23:28.631Z,94694.64
2019-01-14T01:26:18.778Z,94722.54
2019-01-14T01:29:08.356Z,94719.66
2019-01-14T01:31:58.234Z,94723.66
2019-01-14T01:34:47.881Z,94757.63
2019-01-14T01:37:37.455Z,94814.81
2019-01-14T01:40:27.030Z,94848.34
2019-01-14T01:43:16.595Z,94869.88
2019-01-14T01:46:06.188Z,94896.42
2019-01-14T01:48:53.723Z,94916.16
2019-01-14T01:52:37.628Z,94939.12
2019-01-14T01:55:27.216Z,94954.89
2019-01-14T01:58:16.773Z,94961.98
2019-01-14T02:01:06.823Z,94977.69
2019-01-14T02:06:45.898Z,94972.34
2019-01-14T02:09:35.540Z,95001.60
2019-01-14T02:15:36.250Z,95030.48
2019-01-14T02:18:25.910Z,95081.02
2019-01-14T02:21:08.779Z,95111.66
2019-01-14T02:23:58.628Z,95117.38
2019-01-14T02:26:48.193Z,95100.81
2019-01-14T02:33:32.567Z,95175.53
2019-01-14T02:36:22.155Z,95178.68
2019-01-14T02:40:07.274Z,95200.34
2019-01-14T02:43:14.729Z,95222.45
2019-01-14T02:46:04.306Z,95190.89
2019-01-14T02:48:53.980Z,95242.39
2019-01-14T02:51:43.588Z,95250.27
2019-01-14T02:54:33.183Z,95255.10
2019-01-14T02:57:40.646Z,95270.18
2019-01-14T03:00:30.251Z,95286.48
2019-01-14T03:03:19.916Z,95285.07
2019-01-14T03:06:27.338Z,95293.58
2019-01-14T03:09:17.034Z,95267.50
2019-01-14T03:12:06.615Z,95269.19
2019-01-14T03:14:56.183Z,95274.73
2019-01-14T03:17:45.873Z,95283.35
2019-01-14T03:20:33.999Z,95284.69
2019-01-14T03:23:15.950Z,95284.17
2019-01-14T03:33:39.521Z,95286.14
2019-01-14T03:37:05.793Z,95287.37
2019-01-14T03:40:32.119Z,95296.97
2019-01-14T03:51:32.038Z,95304.06
2019-01-14T03:54:57.115Z,95286.66
2019-01-14T03:58:43.326Z,95313.66
2019-01-14T04:01:32.882Z,95308.20
2019-01-14T04:04:22.470Z,95310.95
2019-01-14T04:07:13.805Z,95323.80
2019-01-14T04:13:51.977Z,95335.30
2019-01-14T04:16:41.562Z,95319.17
2019-01-14T04:19:31.174Z,95308.86
2019-01-14T04:22:20.744Z,95319.50
2019-01-14T04:25:10.357Z,95269.73
2019-01-14T04:27:59.916Z,95229.77
2019-01-14T04:33:44.442Z,95199.45
2019-01-14T04:36:34.295Z,95179.89
2019-01-14T04:42:20.866Z,95100.41
2019-01-14T04:45:11.107Z,95026.01
2019-01-14T04:48:00.673Z,95025.52
2019-01-14T04:54:54.031Z,94956.70
2019-01-14T05:01:47.654Z,94856.94
2019-01-14T05:04:37.232Z,94806.91
2019-01-14T05:07:29.657Z,94731.70
2019-01-14T05:10:19.427Z,94740.06
2019-01-14T05:13:45.843Z,94713.39
2019-01-14T05:16:53.371Z,94676.77
2019-01-14T05:23:11.918Z,94582.72
2019-01-14T05:29:48.091Z,94516.56
2019-01-14T05:32:37.934Z,94461.07
2019-01-14T05:35:27.635Z,94448.14
2019-01-14T05:38:53.860Z,94422.70
2019-01-14T05:45:32.407Z,94348.19
2019-01-14T05:48:22.005Z,94292.10
2019-01-14T05:51:11.565Z,94277.08
2019-01-14T05:54:01.130Z,94270.49
2019-01-14T05:56:50.727Z,94262.98
2019-01-14T05:59:40.301Z,94248.92
2019-01-14T06:02:47.175Z,94224.52
2019-01-14T06:05:37.389Z,94218.98
2019-01-14T06:08:26.941Z,94211.88
2019-01-14T06:11:16.796Z,94210.42
2019-01-14T06:14:06.369Z,94216.12
2019-01-14T06:16:56.245Z,94210.02
2019-01-14T06:19:46.998Z,94181.67
2019-01-14T06:22:37.060Z,94231.83
2019-01-14T06:26:22.498Z,94241.98
2019-01-14T06:29:12.069Z,94247.67
2019-01-14T06:32:01.672Z,94251.10
2019-01-14T06:34:51.224Z,94278.28
2019-01-14T06:38:34.925Z,94285.39
2019-01-14T06:41:24.488Z,94262.22
2019-01-14T06:44:14.061Z,94290.72
2019-01-14T06:47:03.630Z,94321.52
2019-01-14T06:49:53.211Z,94314.06
2019-01-14T06:52:40.524Z,94308.69
2019-01-14T06:55:30.102Z,94347.80
2019-01-14T06:58:19.690Z,94349.88
2019-01-14T07:01:09.271Z,94374.36
2019-01-14T07:03:59.059Z,94377.30
2019-01-14T07:06:48.628Z,94382.56
2019-01-14T07:09:38.280Z,94383.23
2019-01-14T07:12:28.014Z,94379.47
2019-01-14T07:19:06.675Z,94385.17
2019-01-14T07:21:55.606Z,94366.88
2019-01-14T07:27:42.564Z,94380.48
2019-01-14T08:10:56.727Z,94434.39
2019-01-14T08:24:52.524Z,94406.13
2019-01-14T08:43:29.593Z,94430.06
2019-01-14T09:38:22.650Z,94601.27
2019-01-14T10:25:24.648Z,94833.40
2019-01-14T10:34:35.401Z,94887.03
2019-01-14T10:37:24.977Z,94877.25
2019-01-14T10:47:32.946Z,94959.20
2019-01-14T10:53:31.016Z,94953.78
2019-01-14T10:59:51.305Z,94984.70
2019-01-14T11:10:25.385Z,94975.02
2019-01-14T11:22:10.684Z,95020.06
2019-01-14T11:25:02.474Z,94974.32
2019-01-14T11:34:04.008Z,95046.52
2019-01-14T11:36:53.589Z,95076.71
2019-01-14T11:39:43.150Z,95069.27
2019-01-14T11:42:32.738Z,95116.66
2019-01-14T11:45:22.337Z,95139.84
2019-01-14T11:48:12.545Z,95157.28
2019-01-14T11:51:02.195Z,95176.68
2019-01-14T11:53:52.162Z,95161.25
2019-01-14T11:59:45.799Z,95246.31
2019-01-14T12:02:39.567Z,95271.52
2019-01-14T12:05:26.858Z,95287.11
2019-01-14T12:08:16.520Z,95301.18
2019-01-14T12:11:06.194Z,95328.67
2019-01-14T12:17:10.691Z,95370.24
2019-01-14T12:22:46.514Z,95404.06
2019-01-14T12:25:36.091Z,95428.99
2019-01-14T12:28:25.672Z,95451.94
2019-01-14T12:35:05.962Z,95489.52
2019-01-14T12:37:55.567Z,95472.23
2019-01-14T12:40:45.232Z,95536.48
2019-01-14T12:43:34.960Z,95562.80
2019-01-14T12:46:24.513Z,95583.16
2019-01-14T12:49:14.134Z,95615.20
2019-01-14T12:52:03.784Z,95649.81
2019-01-14T12:54:53.697Z,95677.34
2019-01-14T13:00:35.233Z,95763.38
2019-01-14T13:03:24.904Z,95804.70
2019-01-14T13:06:14.491Z,95840.69
2019-01-14T13:12:21.493Z,95901.88
2019-01-14T13:15:31.670Z,95942.77
2019-01-14T13:18:21.342Z,95971.60
2019-01-14T13:21:04.188Z,96002.66
2019-01-14T13:23:54.456Z,96049.80
2019-01-14T13:26:44.053Z,96062.89
2019-01-14T13:29:33.654Z,96143.05
2019-01-14T13:32:23.225Z,96084.89
2019-01-14T13:35:12.916Z,96171.50
2019-01-14T13:38:39.338Z,96306.48
2019-01-14T13:41:29.005Z,96344.56
2019-01-14T13:44:36.163Z,96435.24
2019-01-14T13:47:25.806Z,96495.65
2019-01-14T13:53:33.281Z,96546.06
2019-01-14T13:56:22.832Z,96517.64
2019-01-14T13:59:12.463Z,96502.37
2019-01-14T14:02:02.016Z,96446.88
2019-01-14T14:04:51.725Z,96416.77
2019-01-14T14:07:41.280Z,96379.56
2019-01-14T14:13:23.198Z,96353.75
2019-01-14T14:17:10.727Z,96323.73
2019-01-14T14:20:01.278Z,96323.66
2019-01-14T14:22:43.321Z,96316.59
2019-01-14T14:25:32.915Z,96288.66
2019-01-14T14:28:22.773Z,96335.68
2019-01-14T14:31:12.421Z,96345.29
2019-01-14T14:34:02.014Z,96357.36
2019-01-14T14:36:51.689Z,96363.31
2019-01-14T14:39:48.389Z,96450.29
2019-01-14T14:42:32.711Z,96491.68
2019-01-14T14:45:22.312Z,96592.55
2019-01-14T14:48:11.889Z,96653.62
2019-01-14T14:51:01.506Z,96688.34
2019-01-14T14:53:51.197Z,96705.49
2019-01-14T14:56:40.796Z,96705.89
2019-01-14T14:59:30.357Z,96744.77
2019-01-14T15:02:19.956Z,96767.71
2019-01-14T15:08:38.530Z,96793.21
2019-01-14T15:11:28.395Z,96789.02
2019-01-14T15:18:25.686Z,96794.41
2019-01-14T15:21:08.380Z,96809.03
2019-01-14T15:23:57.972Z,96809.84
2019-01-14T15:26:47.545Z,96780.09
2019-01-14T15:29:37.137Z,96826.95
2019-01-14T15:32:26.722Z,96830.28
2019-01-14T15:35:16.360Z,96828.14
2019-01-14T15:38:06.064Z,96825.69
2019-01-14T15:40:55.649Z,96830.70
2019-01-14T15:43:45.238Z,96849.45
2019-01-14T15:46:34.802Z,96856.95
2019-01-14T15:49:24.371Z,96848.61
2019-01-14T15:52:13.956Z,96809.71
2019-01-14T15:55:03.525Z,96864.52
2019-01-14T15:57:53.198Z,96836.45
2019-01-14T16:00:42.970Z,96877.02
2019-01-14T16:03:33.336Z,96878.74
2019-01-14T16:06:22.920Z,96896.28
2019-01-14T16:09:12.500Z,96907.06
2019-01-14T16:12:02.090Z,96919.56
2019-01-14T16:14:51.679Z,96914.17
2019-01-14T16:17:41.256Z,96930.83
2019-01-14T16:20:30.887Z,96929.95
2019-01-14T16:23:20.477Z,96922.91
2019-01-14T16:29:06.114Z,96935.38
2019-01-14T16:31:55.684Z,96925.34
2019-01-14T16:34:45.252Z,96933.25
2019-01-14T16:41:25.345Z,96927.39
2019-01-14T16:48:05.609Z,96919.00
2019-01-14T16:51:02.613Z,96921.95
2019-01-14T16:53:52.179Z,96930.33
2019-01-14T16:56:41.872Z,96915.95
2019-01-14T16:59:31.439Z,96954.89
2019-01-14T17:02:21.293Z,96927.99
2019-01-14T17:06:06.400Z,96959.44
2019-01-14T17:08:55.995Z,96961.11
2019-01-14T17:11:45.855Z,96976.92
2019-01-14T17:14:37.168Z,96969.41
2019-01-14T17:17:27.017Z,96973.14
2019-01-14T17:20:18.395Z,96977.73
2019-01-14T17:23:07.951Z,96953.78
2019-01-14T17:25:57.528Z,96990.62
2019-01-14T17:29:24.073Z,96978.05
2019-01-14T17:35:03.132Z,96997.25
2019-01-14T17:37:53.100Z,97011.38
2019-01-14T17:40:42.672Z,97031.76
2019-01-14T17:43:32.249Z,97021.61
2019-01-14T17:46:24.730Z,97023.16
2019-01-14T17:49:14.334Z,97015.59
2019-01-14T17:52:24.246Z,97001.95
2019-01-14T17:55:14.182Z,96965.45
2019-01-14T17:58:03.780Z,96989.42
2019-01-14T18:00:53.377Z,96937.44
2019-01-14T18:03:42.955Z,96975.55
2019-01-14T18:06:32.538Z,96978.38
2019-01-14T18:12:11.928Z,96975.01
2019-01-14T18:15:01.538Z,97012.45
2019-01-14T18:17:51.111Z,97019.47
2019-01-14T18:20:33.379Z,97048.64
2019-01-14T18:23:23.301Z,97069.30
2019-01-14T18:26:12.888Z,97047.44
2019-01-14T18:29:02.438Z,97094.67
2019-01-14T18:31:52.160Z,97105.16
2019-01-14T18:34:41.740Z,97078.83
2019-01-14T18:37:31.373Z,97138.62
2019-01-14T18:40:21.143Z,97154.73
2019-01-14T18:43:10.707Z,97165.02
2019-01-14T18:46:00.318Z,97164.84
2019-01-14T18:48:49.908Z,97181.59
2019-01-14T18:51:39.477Z,97184.45
2019-01-14T18:54:29.038Z,97186.02
2019-01-14T18:57:18.610Z,97194.72
2019-01-14T19:00:31.743Z,97204.66
2019-01-14T19:03:21.296Z,97207.99
2019-01-14T19:06:10.877Z,97212.88
2019-01-14T19:09:00.455Z,97208.05
2019-01-14T19:11:50.034Z,97215.75
2019-01-14T19:14:39.604Z,97218.52
2019-01-14T19:17:29.193Z,97232.88
2019-01-14T19:20:41.384Z,97240.22
2019-01-14T19:23:30.953Z,97233.66
2019-01-14T19:26:20.527Z,97234.85
2019-01-14T19:29:10.158Z,97215.14
2019-01-14T19:31:59.717Z,97247.39
2019-01-14T19:34:49.296Z,97254.98
2019-01-14T19:37:56.694Z,97247.71
2019-01-14T19:40:46.411Z,97270.70
2019-01-14T19:43:36.024Z,97273.20
2019-01-14T19:50:38.211Z,97278.08
2019-01-14T19:53:28.095Z,97267.30
2019-01-14T19:56:17.657Z,97281.25
2019-01-14T19:59:07.225Z,97276.14
2019-01-14T20:01:56.818Z,97286.55
2019-01-14T20:04:46.424Z,97272.45
2019-01-14T20:07:36.019Z,97265.73
2019-01-14T20:10:25.607Z,97264.71
2019-01-14T20:13:15.202Z,97270.85
2019-01-14T20:16:18.330Z,97259.17
2019-01-14T20:22:39.889Z,97284.65
2019-01-14T20:25:29.725Z,97283.05
2019-01-14T20:28:19.305Z,97284.25
2019-01-14T20:31:08.878Z,97266.45
2019-01-14T20:33:58.480Z,97271.20
2019-01-14T20:36:48.064Z,97268.17
2019-01-14T20:39:37.637Z,97263.60
2019-01-14T20:42:27.202Z,97257.62
2019-01-14T20:45:17.311Z,97258.55
2019-01-14T20:48:06.912Z,97249.76
2019-01-14T20:50:56.749Z,97245.03
2019-01-14T20:53:46.308Z,97241.75
2019-01-14T20:56:36.190Z,97229.39
2019-01-14T21:09:08.075Z,97198.70
2019-01-14T21:11:57.639Z,97175.59
2019-01-14T21:14:47.251Z,97180.90
2019-01-14T21:17:36.810Z,97151.31
2019-01-14T21:20:26.729Z,97182.89
2019-01-14T21:23:17.967Z,97178.20
2019-01-14T21:26:07.823Z,97172.78
2019-01-14T21:28:57.795Z,97169.77
2019-01-14T21:31:47.376Z,97160.67
2019-01-14T21:34:36.950Z,97156.98
2019-01-14T21:37:26.529Z,97160.27
2019-01-14T21:40:16.163Z,97147.83
2019-01-14T21:43:05.717Z,97156.11
2019-01-14T21:45:55.294Z,97125.73
2019-01-14T21:48:44.851Z,97121.98
2019-01-14T21:51:34.476Z,97112.06
2019-01-14T21:54:24.128Z,97096.61
2019-01-14T21:57:13.801Z,97098.64
2019-01-14T22:00:24.414Z,97065.21
2019-01-14T22:03:15.606Z,97065.36
2019-01-14T22:06:05.363Z,97049.59
2019-01-14T22:11:44.441Z,97019.19
2019-01-14T22:14:34.442Z,96994.88
2019-01-14T22:17:24.011Z,96956.43
2019-01-14T22:23:37.069Z,96976.66
2019-01-14T22:26:27.355Z,96966.64
2019-01-14T22:29:16.822Z,96971.27
2019-01-14T22:32:06.379Z,96955.45
2019-01-14T22:34:55.944Z,96914.73
2019-01-14T22:37:45.620Z,96890.22
2019-01-14T22:44:26.571Z,96830.13
2019-01-14T22:47:16.120Z,96837.13
2019-01-14T22:50:28.130Z,96885.31
2019-01-14T22:53:17.990Z,96885.08
2019-01-14T22:56:07.999Z,96889.73
2019-01-14T22:58:57.983Z,96883.07
2019-01-14T23:01:50.120Z,96898.88
2019-01-14T23:04:39.713Z,96891.40
2019-01-14T23:07:29.281Z,96896.34
2019-01-14T23:10:18.862Z,96898.84
2019-01-14T23:13:08.459Z,96900.17
2019-01-14T23:15:58.276Z,96910.11
2019-01-14T23:18:48.093Z,96909.73
2019-01-14T23:21:31.138Z,96890.36
2019-01-14T23:24:20.710Z,96900.13
2019-01-14T23:27:10.259Z,96905.53
2019-01-14T23:29:59.924Z,96898.80
2019-01-14T23:32:48.087Z,96900.05
2019-01-14T23:36:14.688Z,96892.89
2019-01-14T23:42:21.124Z,96889.94
2019-01-14T23:45:10.945Z,96884.58
2019-01-14T23:48:00.885Z,96889.16
2019-01-14T23:50:51.033Z,96882.08
2019-01-14T23:54:37.067Z,96867.91
2019-01-14T23:57:45.793Z,96874.97
